createdAt,value
2019-04-04T00:18:31.251Z,13.72
2019-04-04T00:38:40.232Z,14.35
2019-04-04T00:58:51.661Z,13.32
2019-04-04T01:08:56.314Z,13.58
2019-04-04T01:29:05.849Z,14.05
2019-04-04T01:39:11.296Z,13.78
2019-04-04T01:59:19.899Z,13.85
2019-04-04T02:09:24.643Z,13.95
2019-04-04T02:39:37.260Z,14.83
2019-04-04T02:59:46.255Z,15.50
2019-04-04T03:19:55.281Z,14.23
2019-04-04T03:40:04.667Z,14.18
2019-04-04T03:50:10.649Z,14.85
2019-04-04T04:10:20.655Z,13.83
2019-04-04T04:20:25.417Z,15.43
2019-04-04T04:50:40.050Z,15.53
2019-04-04T05:00:46.954Z,18.87
2019-04-04T05:10:50.659Z,18.57
2019-04-04T05:31:00.580Z,13.48
2019-04-04T06:01:14.449Z,14.78
2019-04-04T06:21:24.275Z,14.03
2019-04-04T06:41:34.343Z,13.70
2019-04-04T07:21:51.337Z,15.30
2019-04-04T07:31:57.628Z,15.50
2019-04-04T07:42:02.232Z,15.90
2019-04-04T08:02:10.639Z,15.28
2019-04-04T08:12:15.284Z,16.97
2019-04-04T08:42:27.664Z,16.42
2019-04-04T09:12:40.268Z,16.52
2019-04-04T09:32:49.254Z,16.45
2019-04-04T09:42:55.253Z,16.50
2019-04-04T10:03:04.226Z,16.87
2019-04-04T10:13:08.648Z,14.80
2019-04-04T10:23:13.336Z,16.40
2019-04-04T10:43:21.633Z,16.27
2019-04-04T11:13:34.118Z,16.87
2019-04-04T11:33:42.702Z,16.32
2019-04-04T11:43:47.296Z,17.02
2019-04-04T12:03:55.648Z,16.35
2019-04-04T12:34:07.639Z,14.28
2019-04-04T12:44:12.314Z,15.08
2019-04-04T13:14:27.649Z,14.30
2019-04-04T13:24:32.287Z,14.68
2019-04-04T13:34:36.647Z,13.60
2019-04-04T13:44:41.257Z,14.10
2019-04-04T14:04:49.625Z,14.68
2019-04-04T14:14:54.262Z,15.05
2019-04-04T14:24:58.638Z,22.20
2019-04-04T14:35:03.351Z,26.65
2019-04-04T15:15:21.095Z,17.40
2019-04-04T15:45:34.640Z,17.42
2019-04-04T15:55:39.263Z,18.40
2019-04-04T16:15:47.832Z,18.65
2019-04-04T16:25:52.608Z,17.12
2019-04-04T16:46:01.639Z,21.02
2019-04-04T16:56:06.260Z,18.70
2019-04-04T17:16:16.261Z,22.37
2019-04-04T17:36:24.851Z,26.27
2019-04-04T17:46:30.758Z,23.15
2019-04-04T17:56:36.569Z,20.37
2019-04-04T18:06:41.248Z,20.80
2019-04-04T18:26:50.243Z,22.52
2019-04-04T18:36:55.264Z,24.80
2019-04-04T18:57:04.923Z,24.10
2019-04-04T19:23:03.269Z,22.20
2019-04-04T19:43:17.986Z,25.72
2019-04-04T19:53:18.683Z,27.27
2019-04-04T20:03:23.328Z,24.50
2019-04-04T20:23:33.691Z,25.23
2019-04-04T20:33:38.363Z,23.15
2019-04-04T20:53:49.156Z,25.52
2019-04-04T21:13:57.866Z,21.00
2019-04-04T21:24:03.155Z,22.22
2019-04-04T21:44:12.692Z,23.87
2019-04-04T21:54:17.856Z,24.00
2019-04-04T22:04:23.303Z,23.85
2019-04-04T22:24:32.328Z,24.00
2019-04-04T22:44:41.263Z,24.30
2019-04-04T23:14:53.670Z,24.52
2019-04-04T23:55:13.291Z,25.80
